sensor_id;sensor_type;location;lat;lon;timestamp;pressure;altitude;pressure_sealevel;temperature;humidity
64544;BME280;50936;51.660;5.616;2023-07-30T00:00:50;100575.44;;;28.28;45.02
64544;BME280;50936;51.660;5.616;2023-07-30T00:03:17;100578.44;;;28.27;44.97
64544;BME280;50936;51.660;5.616;2023-07-30T00:05:54;100567.72;;;28.30;44.69
64544;BME280;50936;51.660;5.616;2023-07-30T00:08:22;100564.34;;;28.28;44.95
64544;BME280;50936;51.660;5.616;2023-07-30T00:10:50;100566.03;;;28.29;44.78
64544;BME280;50936;51.660;5.616;2023-07-30T00:13:17;100580.34;;;28.26;44.45
64544;BME280;50936;51.660;5.616;2023-07-30T00:15:47;100574.56;;;28.28;44.72
64544;BME280;50936;51.660;5.616;2023-07-30T00:18:15;100568.63;;;28.24;44.40
64544;BME280;50936;51.660;5.616;2023-07-30T00:20:43;100565.00;;;28.23;44.55
64544;BME280;50936;51.660;5.616;2023-07-30T00:23:10;100570.78;;;28.22;44.26
64544;BME280;50936;51.660;5.616;2023-07-30T00:25:37;100569.72;;;28.23;44.41
64544;BME280;50936;51.660;5.616;2023-07-30T00:28:04;100567.41;;;28.20;44.53
64544;BME280;50936;51.660;5.616;2023-07-30T00:30:31;100571.88;;;28.21;44.09
64544;BME280;50936;51.660;5.616;2023-07-30T00:32:58;100567.41;;;28.20;44.22
64544;BME280;50936;51.660;5.616;2023-07-30T00:35:25;100569.56;;;28.18;44.08
64544;BME280;50936;51.660;5.616;2023-07-30T00:37:52;100568.72;;;28.17;43.78
64544;BME280;50936;51.660;5.616;2023-07-30T00:40:19;100569.16;;;28.14;43.79
64544;BME280;50936;51.660;5.616;2023-07-30T00:42:45;100570.63;;;28.17;44.00
64544;BME280;50936;51.660;5.616;2023-07-30T00:45:12;100563.00;;;28.12;44.24
64544;BME280;50936;51.660;5.616;2023-07-30T00:47:40;100571.72;;;28.16;43.83
64544;BME280;50936;51.660;5.616;2023-07-30T00:50:10;100570.50;;;28.12;43.67
64544;BME280;50936;51.660;5.616;2023-07-30T00:52:41;100577.72;;;28.13;43.76
64544;BME280;50936;51.660;5.616;2023-07-30T00:55:10;100576.03;;;28.12;43.82
64544;BME280;50936;51.660;5.616;2023-07-30T00:57:38;100581.59;;;28.12;43.57
64544;BME280;50936;51.660;5.616;2023-07-30T01:00:06;100583.28;;;28.13;43.68
64544;BME280;50936;51.660;5.616;2023-07-30T01:02:36;100583.09;;;28.08;43.88
64544;BME280;50936;51.660;5.616;2023-07-30T01:05:04;100581.59;;;28.12;44.16
64544;BME280;50936;51.660;5.616;2023-07-30T01:07:31;100581.81;;;28.10;43.74
64544;BME280;50936;51.660;5.616;2023-07-30T01:10:00;100595.47;;;28.12;43.83
64544;BME280;50936;51.660;5.616;2023-07-30T01:12:29;100588.22;;;28.11;43.90
64544;BME280;50936;51.660;5.616;2023-07-30T01:14:58;100596.94;;;28.14;43.65
64544;BME280;50936;51.660;5.616;2023-07-30T01:17:26;100597.38;;;28.11;43.50
64544;BME280;50936;51.660;5.616;2023-07-30T01:19:53;100603.16;;;28.10;43.62
64544;BME280;50936;51.660;5.616;2023-07-30T01:22:23;100603.16;;;28.10;43.58
64544;BME280;50936;51.660;5.616;2023-07-30T01:24:51;100604.88;;;28.11;43.49
64544;BME280;50936;51.660;5.616;2023-07-30T01:27:26;100602.09;;;28.11;43.18
64544;BME280;50936;51.660;5.616;2023-07-30T01:30:22;100607.19;;;28.14;43.34
64544;BME280;50936;51.660;5.616;2023-07-30T01:32:54;100607.66;;;28.11;43.23
64544;BME280;50936;51.660;5.616;2023-07-30T01:35:25;100612.13;;;28.12;43.14
64544;BME280;50936;51.660;5.616;2023-07-30T01:37:55;100616.66;;;28.06;43.47
64544;BME280;50936;51.660;5.616;2023-07-30T01:40:22;100615.81;;;28.06;43.72
64544;BME280;50936;51.660;5.616;2023-07-30T01:42:49;100619.19;;;28.08;43.64
64544;BME280;50936;51.660;5.616;2023-07-30T01:45:17;100620.28;;;28.07;43.56
64544;BME280;50936;51.660;5.616;2023-07-30T01:47:44;100620.50;;;28.05;43.55
64544;BME280;50936;51.660;5.616;2023-07-30T01:50:11;100621.97;;;28.08;43.71
64544;BME280;50936;51.660;5.616;2023-07-30T01:52:38;100623.91;;;28.07;43.24
64544;BME280;50936;51.660;5.616;2023-07-30T01:55:06;100624.59;;;28.02;43.27
64544;BME280;50936;51.660;5.616;2023-07-30T01:57:33;100623.50;;;28.03;43.32
64544;BME280;50936;51.660;5.616;2023-07-30T02:00:00;100625.66;;;28.01;43.25
64544;BME280;50936;51.660;5.616;2023-07-30T02:02:27;100622.66;;;28.03;43.22
64544;BME280;50936;51.660;5.616;2023-07-30T02:04:54;100629.28;;;28.02;43.30
64544;BME280;50936;51.660;5.616;2023-07-30T02:07:21;100627.81;;;27.99;43.30
64544;BME280;50936;51.660;5.616;2023-07-30T02:09:48;100626.91;;;28.06;43.19
64544;BME280;50936;51.660;5.616;2023-07-30T02:12:15;100615.63;;;28.00;43.48
64544;BME280;50936;51.660;5.616;2023-07-30T02:14:42;100620.72;;;28.03;43.48
64544;BME280;50936;51.660;5.616;2023-07-30T02:17:09;100625.22;;;28.05;43.34
64544;BME280;50936;51.660;5.616;2023-07-30T02:19:36;100626.06;;;28.05;43.30
64544;BME280;50936;51.660;5.616;2023-07-30T02:22:03;100615.19;;;28.03;43.33
64544;BME280;50936;51.660;5.616;2023-07-30T02:24:30;100620.13;;;28.01;43.40
64544;BME280;50936;51.660;5.616;2023-07-30T02:26:57;100618.81;;;28.04;43.19
64544;BME280;50936;51.660;5.616;2023-07-30T02:29:24;100616.91;;;28.05;43.35
64544;BME280;50936;51.660;5.616;2023-07-30T02:31:51;100616.28;;;28.02;43.40
64544;BME280;50936;51.660;5.616;2023-07-30T02:34:18;100617.97;;;28.03;43.25
64544;BME280;50936;51.660;5.616;2023-07-30T02:36:45;100609.00;;;28.01;43.14
64544;BME280;50936;51.660;5.616;2023-07-30T02:39:12;100607.94;;;28.02;43.52
64544;BME280;50936;51.660;5.616;2023-07-30T02:41:39;100610.72;;;28.02;43.41
64544;BME280;50936;51.660;5.616;2023-07-30T02:44:06;100609.63;;;28.03;43.26
64544;BME280;50936;51.660;5.616;2023-07-30T02:46:33;100609.00;;;28.01;43.40
64544;BME280;50936;51.660;5.616;2023-07-30T02:49:00;100599.84;;;28.01;43.46
64544;BME280;50936;51.660;5.616;2023-07-30T02:51:27;100603.91;;;27.98;43.38
64544;BME280;50936;51.660;5.616;2023-07-30T02:53:58;100601.31;;;28.03;43.20
64544;BME280;50936;51.660;5.616;2023-07-30T02:56:27;100594.06;;;28.02;43.28
64544;BME280;50936;51.660;5.616;2023-07-30T02:58:54;100598.97;;;28.00;43.33
64544;BME280;50936;51.660;5.616;2023-07-30T03:01:21;100598.97;;;28.00;43.37
64544;BME280;50936;51.660;5.616;2023-07-30T03:03:49;100597.06;;;28.01;43.20
64544;BME280;50936;51.660;5.616;2023-07-30T03:06:16;100604.53;;;28.00;43.30
64544;BME280;50936;51.660;5.616;2023-07-30T03:08:43;100602.84;;;27.99;43.43
64544;BME280;50936;51.660;5.616;2023-07-30T03:11:10;100605.63;;;27.99;43.50
64544;BME280;50936;51.660;5.616;2023-07-30T03:13:37;100605.19;;;28.02;43.50
64544;BME280;50936;51.660;5.616;2023-07-30T03:16:04;100607.78;;;27.97;43.38
64544;BME280;50936;51.660;5.616;2023-07-30T03:18:31;100613.72;;;28.01;43.68
64544;BME280;50936;51.660;5.616;2023-07-30T03:21:02;100612.41;;;28.03;43.22
64544;BME280;50936;51.660;5.616;2023-07-30T03:23:30;100611.16;;;27.99;43.48
64544;BME280;50936;51.660;5.616;2023-07-30T03:25:58;100613.94;;;27.99;43.60
64544;BME280;50936;51.660;5.616;2023-07-30T03:28:28;100611.78;;;28.01;43.29
64544;BME280;50936;51.660;5.616;2023-07-30T03:30:55;100616.28;;;28.02;43.66
64544;BME280;50936;51.660;5.616;2023-07-30T03:33:22;100610.06;;;28.00;43.42
64544;BME280;50936;51.660;5.616;2023-07-30T03:35:49;100617.34;;;28.01;43.50
64544;BME280;50936;51.660;5.616;2023-07-30T03:38:16;100620.56;;;27.98;43.48
64544;BME280;50936;51.660;5.616;2023-07-30T03:40:43;100619.50;;;27.99;43.55
64544;BME280;50936;51.660;5.616;2023-07-30T03:43:10;100619.72;;;27.98;43.55
64544;BME280;50936;51.660;5.616;2023-07-30T03:45:38;100618.88;;;27.97;43.51
64544;BME280;50936;51.660;5.616;2023-07-30T03:48:06;100616.72;;;27.99;43.54
64544;BME280;50936;51.660;5.616;2023-07-30T03:50:33;100623.72;;;28.02;43.53
64544;BME280;50936;51.660;5.616;2023-07-30T03:53:00;100626.72;;;28.00;43.30
64544;BME280;50936;51.660;5.616;2023-07-30T03:55:26;100635.53;;;27.97;43.57
64544;BME280;50936;51.660;5.616;2023-07-30T03:57:55;100633.59;;;27.98;43.43
64544;BME280;50936;51.660;5.616;2023-07-30T04:00:23;100632.75;;;27.97;43.50
64544;BME280;50936;51.660;5.616;2023-07-30T04:02:50;100630.59;;;27.99;43.42
64544;BME280;50936;51.660;5.616;2023-07-30T04:05:17;100632.13;;;27.95;43.29
64544;BME280;50936;51.660;5.616;2023-07-30T04:07:44;100635.13;;;27.94;43.45
64544;BME280;50936;51.660;5.616;2023-07-30T04:10:11;100630.44;;;27.94;43.37
64544;BME280;50936;51.660;5.616;2023-07-30T04:12:38;100636.81;;;27.95;43.40
64544;BME280;50936;51.660;5.616;2023-07-30T04:15:06;100635.34;;;27.92;43.42
64544;BME280;50936;51.660;5.616;2023-07-30T04:17:38;100636.59;;;27.96;43.51
64544;BME280;50936;51.660;5.616;2023-07-30T04:20:05;100641.81;;;28.11;43.33
64544;BME280;50936;51.660;5.616;2023-07-30T04:22:33;100633.38;;;27.99;43.34
64544;BME280;50936;51.660;5.616;2023-07-30T04:25:00;100631.66;;;27.98;43.30
64544;BME280;50936;51.660;5.616;2023-07-30T04:27:27;100641.97;;;27.91;43.80
64544;BME280;50936;51.660;5.616;2023-07-30T04:29:57;100638.13;;;27.92;43.46
64544;BME280;50936;51.660;5.616;2023-07-30T04:32:24;100639.81;;;27.93;43.61
64544;BME280;50936;51.660;5.616;2023-07-30T04:34:51;100641.75;;;27.93;43.59
64544;BME280;50936;51.660;5.616;2023-07-30T04:37:18;100646.47;;;27.92;43.47
64544;BME280;50936;51.660;5.616;2023-07-30T04:39:45;100651.78;;;27.94;43.69
64544;BME280;50936;51.660;5.616;2023-07-30T04:42:12;100648.13;;;27.93;43.38
64544;BME280;50936;51.660;5.616;2023-07-30T04:44:41;100650.91;;;27.93;43.53
64544;BME280;50936;51.660;5.616;2023-07-30T04:47:14;100644.75;;;27.91;43.46
64544;BME280;50936;51.660;5.616;2023-07-30T04:49:41;100650.28;;;27.91;43.64
64544;BME280;50936;51.660;5.616;2023-07-30T04:52:08;100650.91;;;27.93;43.61
64544;BME280;50936;51.660;5.616;2023-07-30T04:54:35;100643.06;;;27.90;43.75
64544;BME280;50936;51.660;5.616;2023-07-30T04:57:03;100640.06;;;27.92;43.71
64544;BME280;50936;51.660;5.616;2023-07-30T04:59:30;100640.69;;;27.87;43.62
64544;BME280;50936;51.660;5.616;2023-07-30T05:01:57;100638.53;;;27.89;43.58
64544;BME280;50936;51.660;5.616;2023-07-30T05:04:23;100653.94;;;27.92;43.60
64544;BME280;50936;51.660;5.616;2023-07-30T05:06:50;100649.22;;;27.92;43.70
64544;BME280;50936;51.660;5.616;2023-07-30T05:09:17;100653.06;;;27.91;43.67
64544;BME280;50936;51.660;5.616;2023-07-30T05:11:44;100656.94;;;27.90;43.78
64544;BME280;50936;51.660;5.616;2023-07-30T05:14:11;100649.66;;;27.89;43.73
64544;BME280;50936;51.660;5.616;2023-07-30T05:16:38;100657.78;;;27.91;43.81
64544;BME280;50936;51.660;5.616;2023-07-30T05:19:05;100664.63;;;27.88;43.91
64544;BME280;50936;51.660;5.616;2023-07-30T05:21:32;100662.91;;;27.87;43.71
64544;BME280;50936;51.660;5.616;2023-07-30T05:23:59;100663.34;;;27.91;43.87
64544;BME280;50936;51.660;5.616;2023-07-30T05:26:26;100674.44;;;27.91;44.02
64544;BME280;50936;51.660;5.616;2023-07-30T05:28:53;100675.28;;;27.91;43.97
64544;BME280;50936;51.660;5.616;2023-07-30T05:31:20;100667.19;;;27.90;44.14
64544;BME280;50936;51.660;5.616;2023-07-30T05:33:46;100675.28;;;27.91;44.17
64544;BME280;50936;51.660;5.616;2023-07-30T05:36:13;100666.28;;;27.89;44.59
64544;BME280;50936;51.660;5.616;2023-07-30T05:38:40;100669.72;;;27.91;44.49
64544;BME280;50936;51.660;5.616;2023-07-30T05:41:07;100679.13;;;27.90;44.22
64544;BME280;50936;51.660;5.616;2023-07-30T05:43:34;100668.66;;;27.92;44.51
64544;BME280;50936;51.660;5.616;2023-07-30T05:46:01;100667.56;;;27.93;44.38
64544;BME280;50936;51.660;5.616;2023-07-30T05:48:28;100668.66;;;27.92;44.62
64544;BME280;50936;51.660;5.616;2023-07-30T05:50:55;100671.44;;;27.92;44.62
64544;BME280;50936;51.660;5.616;2023-07-30T05:53:22;100666.28;;;27.96;44.48
64544;BME280;50936;51.660;5.616;2023-07-30T05:55:49;100673.13;;;27.93;44.64
64544;BME280;50936;51.660;5.616;2023-07-30T05:58:17;100674.84;;;27.94;44.51
64544;BME280;50936;51.660;5.616;2023-07-30T06:00:44;100670.34;;;27.93;44.90
64544;BME280;50936;51.660;5.616;2023-07-30T06:03:11;100666.50;;;27.94;44.62
64544;BME280;50936;51.660;5.616;2023-07-30T06:05:42;100666.28;;;27.96;44.84
64544;BME280;50936;51.660;5.616;2023-07-30T06:08:09;100668.44;;;27.94;44.76
64544;BME280;50936;51.660;5.616;2023-07-30T06:10:37;100680.38;;;27.94;44.87
64544;BME280;50936;51.660;5.616;2023-07-30T06:13:04;100673.31;;;27.98;44.89
64544;BME280;50936;51.660;5.616;2023-07-30T06:15:32;100672.69;;;27.96;44.97
64544;BME280;50936;51.660;5.616;2023-07-30T06:18:01;100673.53;;;27.97;44.99
64544;BME280;50936;51.660;5.616;2023-07-30T06:20:29;100677.78;;;27.99;44.78
64544;BME280;50936;51.660;5.616;2023-07-30T06:22:56;100683.34;;;27.99;45.01
64544;BME280;50936;51.660;5.616;2023-07-30T06:25:23;100680.34;;;28.01;45.01
64544;BME280;50936;51.660;5.616;2023-07-30T06:27:50;100676.06;;;27.98;44.98
64544;BME280;50936;51.660;5.616;2023-07-30T06:30:18;100673.91;;;28.00;44.86
64544;BME280;50936;51.660;5.616;2023-07-30T06:32:44;100676.69;;;28.00;44.98
64544;BME280;50936;51.660;5.616;2023-07-30T06:35:12;100671.78;;;28.02;45.10
64544;BME280;50936;51.660;5.616;2023-07-30T06:37:38;100672.41;;;28.05;44.88
64544;BME280;50936;51.660;5.616;2023-07-30T06:40:06;100675.19;;;28.05;44.98
64544;BME280;50936;51.660;5.616;2023-07-30T06:42:33;100678.19;;;28.03;44.86
64544;BME280;50936;51.660;5.616;2023-07-30T06:45:00;100675.41;;;28.03;44.61
64544;BME280;50936;51.660;5.616;2023-07-30T06:47:27;100681.81;;;28.03;44.88
64544;BME280;50936;51.660;5.616;2023-07-30T06:49:54;100679.88;;;28.04;44.89
64544;BME280;50936;51.660;5.616;2023-07-30T06:52:21;100675.19;;;28.05;44.84
64544;BME280;50936;51.660;5.616;2023-07-30T06:54:48;100678.59;;;28.07;44.98
64544;BME280;50936;51.660;5.616;2023-07-30T06:57:15;100677.72;;;28.06;44.83
64544;BME280;50936;51.660;5.616;2023-07-30T06:59:43;100680.25;;;28.08;45.02
64544;BME280;50936;51.660;5.616;2023-07-30T07:02:10;100683.66;;;28.10;44.87
64544;BME280;50936;51.660;5.616;2023-07-30T07:04:36;100678.38;;;28.08;44.90
64544;BME280;50936;51.660;5.616;2023-07-30T07:07:04;100679.81;;;28.11;44.90
64544;BME280;50936;51.660;5.616;2023-07-30T07:09:31;100681.53;;;28.12;45.13
64544;BME280;50936;51.660;5.616;2023-07-30T07:11:58;100684.31;;;28.12;45.07
64544;BME280;50936;51.660;5.616;2023-07-30T07:14:25;100682.78;;;28.16;45.06
64544;BME280;50936;51.660;5.616;2023-07-30T07:16:54;100684.47;;;28.17;44.91
64544;BME280;50936;51.660;5.616;2023-07-30T07:19:22;100684.47;;;28.17;44.89
64544;BME280;50936;51.660;5.616;2023-07-30T07:21:49;100691.72;;;28.18;44.98
64544;BME280;50936;51.660;5.616;2023-07-30T07:24:16;100687.84;;;28.19;44.82
64544;BME280;50936;51.660;5.616;2023-07-30T07:26:43;100691.72;;;28.18;44.88
64544;BME280;50936;51.660;5.616;2023-07-30T07:29:11;100695.97;;;28.20;44.62
64544;BME280;50936;51.660;5.616;2023-07-30T07:31:38;100695.75;;;28.22;44.95
64544;BME280;50936;51.660;5.616;2023-07-30T07:34:05;100695.97;;;28.20;44.69
64544;BME280;50936;51.660;5.616;2023-07-30T07:36:32;100694.69;;;28.23;44.71
64544;BME280;50936;51.660;5.616;2023-07-30T07:38:59;100685.72;;;28.21;44.57
64544;BME280;50936;51.660;5.616;2023-07-30T07:41:26;100687.84;;;28.19;44.58
64544;BME280;50936;51.660;5.616;2023-07-30T07:43:53;100684.00;;;28.20;44.71
64544;BME280;50936;51.660;5.616;2023-07-30T07:46:21;100694.69;;;28.23;44.66
64544;BME280;50936;51.660;5.616;2023-07-30T07:48:48;100685.25;;;28.24;44.49
64544;BME280;50936;51.660;5.616;2023-07-30T07:51:15;100693.59;;;28.24;44.72
64544;BME280;50936;51.660;5.616;2023-07-30T07:53:42;100688.25;;;28.22;44.87
64544;BME280;50936;51.660;5.616;2023-07-30T07:56:09;100711.34;;;28.23;44.74
64544;BME280;50936;51.660;5.616;2023-07-30T07:58:36;100700.84;;;28.25;44.77
64544;BME280;50936;51.660;5.616;2023-07-30T08:01:03;100711.94;;;28.25;44.48
64544;BME280;50936;51.660;5.616;2023-07-30T08:03:30;100716.66;;;28.25;44.44
64544;BME280;50936;51.660;5.616;2023-07-30T08:05:57;100710.03;;;28.26;44.63
64544;BME280;50936;51.660;5.616;2023-07-30T08:08:25;100710.84;;;28.26;44.85
64544;BME280;50936;51.660;5.616;2023-07-30T08:10:53;100719.84;;;28.28;44.69
64544;BME280;50936;51.660;5.616;2023-07-30T08:13:20;100709.41;;;28.23;44.83
64544;BME280;50936;51.660;5.616;2023-07-30T08:15:47;100708.09;;;28.26;44.61
64544;BME280;50936;51.660;5.616;2023-07-30T08:18:14;100704.47;;;28.26;44.64
64544;BME280;50936;51.660;5.616;2023-07-30T08:20:41;100708.75;;;28.28;44.83
64544;BME280;50936;51.660;5.616;2023-07-30T08:23:08;100705.31;;;28.26;44.70
64544;BME280;50936;51.660;5.616;2023-07-30T08:25:35;100707.03;;;28.27;44.71
64544;BME280;50936;51.660;5.616;2023-07-30T08:28:02;100715.13;;;28.29;44.53
64544;BME280;50936;51.660;5.616;2023-07-30T08:30:29;100725.41;;;28.28;44.49
64544;BME280;50936;51.660;5.616;2023-07-30T08:32:56;100721.53;;;28.29;44.77
64544;BME280;50936;51.660;5.616;2023-07-30T08:35:23;100725.41;;;28.28;44.47
64544;BME280;50936;51.660;5.616;2023-07-30T08:37:50;100725.41;;;28.28;44.50
64544;BME280;50936;51.660;5.616;2023-07-30T08:40:17;100717.06;;;28.28;44.60
64544;BME280;50936;51.660;5.616;2023-07-30T08:42:44;100716.41;;;28.26;44.57
64544;BME280;50936;51.660;5.616;2023-07-30T08:45:11;100718.13;;;28.27;44.46
64544;BME280;50936;51.660;5.616;2023-07-30T08:47:39;100721.53;;;28.29;44.71
64544;BME280;50936;51.660;5.616;2023-07-30T08:50:08;100730.06;;;28.28;44.67
64544;BME280;50936;51.660;5.616;2023-07-30T08:52:35;100725.41;;;28.28;44.43
64544;BME280;50936;51.660;5.616;2023-07-30T08:55:04;100721.97;;;28.26;44.66
64544;BME280;50936;51.660;5.616;2023-07-30T08:57:32;100725.41;;;28.28;44.66
64544;BME280;50936;51.660;5.616;2023-07-30T09:00:05;100733.25;;;28.31;44.35
64544;BME280;50936;51.660;5.616;2023-07-30T09:02:38;100740.16;;;28.47;44.27
64544;BME280;50936;51.660;5.616;2023-07-30T09:05:10;100736.44;;;28.35;44.26
64544;BME280;50936;51.660;5.616;2023-07-30T09:07:37;100737.75;;;28.32;44.29
64544;BME280;50936;51.660;5.616;2023-07-30T09:10:06;100736.50;;;28.28;44.43
64544;BME280;50936;51.660;5.616;2023-07-30T09:12:34;100730.28;;;28.26;44.42
64544;BME280;50936;51.660;5.616;2023-07-30T09:15:03;100733.06;;;28.26;44.57
64544;BME280;50936;51.660;5.616;2023-07-30T09:17:34;100734.78;;;28.27;44.76
64544;BME280;50936;51.660;5.616;2023-07-30T09:20:03;100730.94;;;28.28;44.77
64544;BME280;50936;51.660;5.616;2023-07-30T09:22:32;100734.78;;;28.27;44.56
64544;BME280;50936;51.660;5.616;2023-07-30T09:25:03;100733.94;;;28.27;44.55
64544;BME280;50936;51.660;5.616;2023-07-30T09:27:32;100723.69;;;28.27;44.66
64544;BME280;50936;51.660;5.616;2023-07-30T09:30:00;100732.63;;;28.29;44.55
64544;BME280;50936;51.660;5.616;2023-07-30T09:32:30;100734.09;;;28.32;44.68
64544;BME280;50936;51.660;5.616;2023-07-30T09:35:06;100731.72;;;28.35;44.55
64544;BME280;50936;51.660;5.616;2023-07-30T09:37:40;100730.03;;;28.34;44.62
64544;BME280;50936;51.660;5.616;2023-07-30T09:40:10;100729.41;;;28.32;44.50
64544;BME280;50936;51.660;5.616;2023-07-30T09:42:43;100742.81;;;28.35;44.42
64544;BME280;50936;51.660;5.616;2023-07-30T09:45:25;100728.72;;;28.37;44.18
64544;BME280;50936;51.660;5.616;2023-07-30T09:47:54;100724.47;;;28.34;44.34
64544;BME280;50936;51.660;5.616;2023-07-30T09:50:24;100717.22;;;28.33;44.44
64544;BME280;50936;51.660;5.616;2023-07-30T09:52:51;100727.03;;;28.36;44.35
64544;BME280;50936;51.660;5.616;2023-07-30T09:55:18;100717.22;;;28.33;44.38
64544;BME280;50936;51.660;5.616;2023-07-30T09:57:46;100720.84;;;28.34;44.46
64544;BME280;50936;51.660;5.616;2023-07-30T10:00:13;100730.03;;;28.34;44.32
64544;BME280;50936;51.660;5.616;2023-07-30T10:02:46;100729.63;;;28.31;44.25
64544;BME280;50936;51.660;5.616;2023-07-30T10:05:19;100753.94;;;28.35;44.17
64544;BME280;50936;51.660;5.616;2023-07-30T10:07:59;100765.03;;;28.35;44.29
64544;BME280;50936;51.660;5.616;2023-07-30T10:10:29;100759.09;;;28.32;44.23
64544;BME280;50936;51.660;5.616;2023-07-30T10:13:00;100770.59;;;28.35;44.39
64544;BME280;50936;51.660;5.616;2023-07-30T10:15:35;100791.13;;;28.34;44.06
64544;BME280;50936;51.660;5.616;2023-07-30T10:18:04;100787.72;;;28.32;44.33
64544;BME280;50936;51.660;5.616;2023-07-30T10:20:32;100805.22;;;28.33;44.28
64544;BME280;50936;51.660;5.616;2023-07-30T10:23:00;100769.34;;;28.31;44.31
64544;BME280;50936;51.660;5.616;2023-07-30T10:25:49;100787.72;;;28.32;44.33
64544;BME280;50936;51.660;5.616;2023-07-30T10:31:00;100797.13;;;28.31;44.32
64544;BME280;50936;51.660;5.616;2023-07-30T10:33:50;100789.19;;;28.35;44.27
64544;BME280;50936;51.660;5.616;2023-07-30T10:39:11;100797.13;;;28.31;44.38
64544;BME280;50936;51.660;5.616;2023-07-30T10:41:55;100789.88;;;28.30;44.17
64544;BME280;50936;51.660;5.616;2023-07-30T10:44:33;100786.50;;;28.28;44.62
64544;BME280;50936;51.660;5.616;2023-07-30T10:47:02;100796.50;;;28.29;44.39
64544;BME280;50936;51.660;5.616;2023-07-30T10:49:36;100795.44;;;28.30;44.45
64544;BME280;50936;51.660;5.616;2023-07-30T10:52:04;100793.09;;;28.27;44.64
64544;BME280;50936;51.660;5.616;2023-07-30T10:54:36;100795.88;;;28.27;44.58
64544;BME280;50936;51.660;5.616;2023-07-30T10:57:03;100798.66;;;28.27;44.69
64544;BME280;50936;51.660;5.616;2023-07-30T10:59:38;100797.13;;;28.31;44.71
64544;BME280;50936;51.660;5.616;2023-07-30T11:02:06;100789.00;;;28.30;44.67
64544;BME280;50936;51.660;5.616;2023-07-30T11:04:35;100792.03;;;28.28;44.77
64544;BME280;50936;51.660;5.616;2023-07-30T11:07:02;100794.97;;;28.33;44.53
64544;BME280;50936;51.660;5.616;2023-07-30T11:09:30;100800.09;;;28.36;44.65
64544;BME280;50936;51.660;5.616;2023-07-30T11:11:57;100791.97;;;28.35;44.41
64544;BME280;50936;51.660;5.616;2023-07-30T11:14:25;100788.97;;;28.36;44.58
64544;BME280;50936;51.660;5.616;2023-07-30T11:16:59;100793.63;;;28.42;44.85
64544;BME280;50936;51.660;5.616;2023-07-30T11:19:27;100788.06;;;28.42;44.58
64544;BME280;50936;51.660;5.616;2023-07-30T11:21:56;100782.06;;;28.46;44.74
64544;BME280;50936;51.660;5.616;2023-07-30T11:24:37;100788.84;;;28.50;44.60
64544;BME280;50936;51.660;5.616;2023-07-30T11:27:04;100784.22;;;28.44;44.80
64544;BME280;50936;51.660;5.616;2023-07-30T11:29:31;100776.06;;;28.49;44.98
64544;BME280;50936;51.660;5.616;2023-07-30T11:31:59;100794.41;;;28.50;44.70
64544;BME280;50936;51.660;5.616;2023-07-30T11:34:29;100792.25;;;28.52;44.83
64544;BME280;50936;51.660;5.616;2023-07-30T11:36:59;100789.06;;;28.55;44.91
64544;BME280;50936;51.660;5.616;2023-07-30T11:39:27;100790.16;;;28.54;45.07
64544;BME280;50936;51.660;5.616;2023-07-30T11:41:55;100792.25;;;28.52;44.83
64544;BME280;50936;51.660;5.616;2023-07-30T11:44:33;100802.03;;;28.61;45.00
64544;BME280;50936;51.660;5.616;2023-07-30T11:47:02;100799.72;;;28.58;45.09
64544;BME280;50936;51.660;5.616;2023-07-30T11:49:30;100814.47;;;28.58;44.95
64544;BME280;50936;51.660;5.616;2023-07-30T11:52:08;100810.38;;;28.61;45.06
64544;BME280;50936;51.660;5.616;2023-07-30T11:54:36;100811.91;;;28.57;44.92
64544;BME280;50936;51.660;5.616;2023-07-30T11:57:04;100810.63;;;28.59;44.89
64544;BME280;50936;51.660;5.616;2023-07-30T11:59:32;100812.78;;;28.57;44.75
64544;BME280;50936;51.660;5.616;2023-07-30T12:01:59;100808.06;;;28.58;44.81
64544;BME280;50936;51.660;5.616;2023-07-30T12:04:30;100815.31;;;28.59;45.04
64544;BME280;50936;51.660;5.616;2023-07-30T12:07:09;100813.81;;;28.63;44.83
64544;BME280;50936;51.660;5.616;2023-07-30T12:09:37;100807.59;;;28.61;44.78
64544;BME280;50936;51.660;5.616;2023-07-30T12:12:05;100811.25;;;28.62;44.77
64544;BME280;50936;51.660;5.616;2023-07-30T12:17:15;100811.25;;;28.62;44.98
64544;BME280;50936;51.660;5.616;2023-07-30T12:19:42;100813.53;;;28.65;44.84
64544;BME280;50936;51.660;5.616;2023-07-30T12:22:09;100811.88;;;28.64;44.95
64544;BME280;50936;51.660;5.616;2023-07-30T12:24:36;100821.25;;;28.63;44.81
64544;BME280;50936;51.660;5.616;2023-07-30T12:27:03;100815.31;;;28.59;45.04
64544;BME280;50936;51.660;5.616;2023-07-30T12:29:30;100818.69;;;28.61;44.65
64544;BME280;50936;51.660;5.616;2023-07-30T12:31:57;100831.53;;;28.62;44.93
64544;BME280;50936;51.660;5.616;2023-07-30T12:34:26;100839.03;;;28.62;44.81
64544;BME280;50936;51.660;5.616;2023-07-30T12:36:53;100835.38;;;28.61;44.77
64544;BME280;50936;51.660;5.616;2023-07-30T12:39:21;100825.34;;;28.60;44.52
64544;BME280;50936;51.660;5.616;2023-07-30T12:41:48;100834.53;;;28.60;44.90
64544;BME280;50936;51.660;5.616;2023-07-30T12:44:15;100827.50;;;28.58;44.62
64544;BME280;50936;51.660;5.616;2023-07-30T12:46:42;100826.41;;;28.59;44.48
64544;BME280;50936;51.660;5.616;2023-07-30T12:49:09;100831.97;;;28.59;44.87
64544;BME280;50936;51.660;5.616;2023-07-30T12:51:36;100821.25;;;28.63;44.59
64544;BME280;50936;51.660;5.616;2023-07-30T12:54:03;100819.19;;;28.58;44.41
64544;BME280;50936;51.660;5.616;2023-07-30T12:56:30;100822.56;;;28.60;44.39
64544;BME280;50936;51.660;5.616;2023-07-30T12:58:57;100818.69;;;28.61;44.77
64544;BME280;50936;51.660;5.616;2023-07-30T13:01:24;100815.31;;;28.59;44.53
64544;BME280;50936;51.660;5.616;2023-07-30T13:03:52;100825.97;;;28.62;44.70